Terminal Aerodrome Forecast
Issued by NWS

Home | Current Version | Previous Version | Text Only | Print | Product List | Glossary On
Versions: 1 2 3 4 5 6 7 8 9 10 11 12 13 14 15 16 17 18 19 20 21 22 23
000
FTUS43 KMKX 110531
TAFENW
TAF
KENW 110531Z 1106/1206 15008KT 1 1/2SM -SN SCT015 OVC025
     FM111200 16009KT 3SM -SN SCT015 OVC025
     FM111900 19009KT 1 1/2SM -SN OVC010
     FM120100 22006KT P6SM OVC008
     FM120300 25007KT P6SM OVC008=

USA.gov is the U.S. government's official web portal to all federal, state and local government web resources and services.